Time;durP1;ratioP1;P1;durP2;ratioP2;P2;SDS_P1;SDS_P2;PMS_P1;PMS_P2;Temp;Humidity;BMP_temperature;BMP_pressure;BME280_temperature;BME280_humidity;BME280_pressure;Samples;Min_cycle;Max_cycle;Signal;HPM_P1;HPM_P2
2021/09/23 00:02:15;;;;;;;13.43;9.38;;;16.00;68.10;;;;;;4955483;29;20034;-79
2021/09/23 00:04:43;;;;;;;15.82;10.18;;;16.00;68.00;;;;;;4954907;29;20031;-80
2021/09/23 00:07:09;;;;;;;15.32;10.13;;;15.90;68.20;;;;;;4937145;29;20545;-80
2021/09/23 00:09:35;;;;;;;14.10;10.25;;;15.90;68.30;;;;;;4954887;29;20039;-80
2021/09/23 00:12:00;;;;;;;15.77;10.32;;;15.90;68.60;;;;;;4954937;29;20019;-79
2021/09/23 00:14:26;;;;;;;13.45;9.32;;;15.90;68.60;;;;;;4951311;29;20024;-80
2021/09/23 00:16:52;;;;;;;14.95;9.90;;;16.00;68.40;;;;;;4954726;29;20023;-80
2021/09/23 00:19:19;;;;;;;12.85;9.40;;;15.90;68.30;;;;;;4954585;29;20035;-79
2021/09/23 00:21:45;;;;;;;14.50;10.18;;;15.90;68.80;;;;;;4954305;29;20027;-80
2021/09/23 00:24:10;;;;;;;13.40;9.82;;;15.80;68.40;;;;;;4954894;29;20023;-79
2021/09/23 00:26:36;;;;;;;14.80;10.10;;;15.80;69.70;;;;;;4955342;29;20410;-78
2021/09/23 00:29:03;;;;;;;14.98;9.65;;;15.80;69.50;;;;;;4937816;29;20041;-79
2021/09/23 00:31:31;;;;;;;14.00;9.80;;;15.80;68.40;;;;;;4954736;29;20030;-78
2021/09/23 00:33:57;;;;;;;14.63;9.80;;;15.70;68.70;;;;;;4955327;29;20055;-81
2021/09/23 00:36:22;;;;;;;12.80;9.48;;;15.80;68.40;;;;;;4954820;29;20031;-80
2021/09/23 00:38:48;;;;;;;13.65;9.38;;;15.70;68.80;;;;;;4955419;29;20043;-80
2021/09/23 00:41:15;;;;;;;14.13;9.82;;;15.70;68.80;;;;;;4955124;29;20042;-80
2021/09/23 00:43:41;;;;;;;15.30;10.50;;;15.70;68.70;;;;;;4937174;29;20082;-80
2021/09/23 00:46:07;;;;;;;13.85;9.85;;;15.60;68.70;;;;;;4954143;29;20451;-79
2021/09/23 00:48:32;;;;;;;15.00;10.57;;;15.60;68.10;;;;;;4936788;29;20507;-79
2021/09/23 00:51:01;;;;;;;13.05;9.60;;;15.50;68.40;;;;;;4953800;29;20034;-80
2021/09/23 00:53:27;;;;;;;13.20;10.07;;;15.40;68.80;;;;;;4953794;28;20023;-80
2021/09/23 00:55:58;;;;;;;15.93;9.98;;;15.40;68.90;;;;;;4954350;29;20436;-79
2021/09/23 00:58:24;;;;;;;14.77;11.13;;;15.40;68.90;;;;;;4953966;29;20126;-78
2021/09/23 01:00:49;;;;;;;14.23;10.52;;;15.40;69.30;;;;;;4954035;29;20094;-79
2021/09/23 01:03:15;;;;;;;13.73;10.05;;;15.40;69.10;;;;;;4954205;29;20042;-78
2021/09/23 01:05:42;;;;;;;15.85;10.32;;;15.40;69.20;;;;;;4936404;29;20551;-79
2021/09/23 01:08:08;;;;;;;16.02;10.10;;;15.40;69.10;;;;;;4954456;29;20046;-79
2021/09/23 01:10:33;;;;;;;15.68;10.52;;;15.30;69.10;;;;;;4953838;29;20404;-79
2021/09/23 01:12:59;;;;;;;15.48;10.38;;;15.30;69.40;;;;;;4953840;29;20106;-79
2021/09/23 01:15:25;;;;;;;14.63;10.00;;;15.20;69.60;;;;;;4950044;29;20032;-78
2021/09/23 01:17:50;;;;;;;15.73;10.82;;;15.20;69.40;;;;;;4953779;29;20792;-79
2021/09/23 01:20:18;;;;;;;15.68;10.60;;;15.20;69.80;;;;;;4954134;29;20396;-79
2021/09/23 01:22:44;;;;;;;14.57;10.85;;;15.20;70.30;;;;;;4953681;29;20023;-79
2021/09/23 01:25:14;;;;;;;17.33;10.65;;;15.20;69.90;;;;;;4953789;29;20470;-79
2021/09/23 01:27:39;;;;;;;15.32;10.38;;;15.10;69.80;;;;;;4953454;29;20029;-79
2021/09/23 01:30:05;;;;;;;16.50;10.55;;;15.20;70.60;;;;;;4953726;29;20031;-78
2021/09/23 01:32:31;;;;;;;17.23;10.88;;;15.10;69.90;;;;;;4953823;29;20027;-79
2021/09/23 01:34:57;;;;;;;14.30;10.50;;;15.10;69.80;;;;;;4953410;29;20059;-79
2021/09/23 01:37:22;;;;;;;15.13;10.20;;;15.10;70.30;;;;;;4954288;29;20027;-78
2021/09/23 01:39:48;;;;;;;15.68;11.20;;;15.10;69.90;;;;;;4954136;29;20040;-79
2021/09/23 01:42:14;;;;;;;17.98;10.88;;;15.00;70.00;;;;;;4954264;29;20023;-78
2021/09/23 01:44:39;;;;;;;15.48;10.38;;;15.00;70.40;;;;;;4954255;29;20511;-78
2021/09/23 01:47:05;;;;;;;14.88;10.18;;;15.00;70.40;;;;;;4954000;29;20038;-78
2021/09/23 01:49:31;;;;;;;14.95;10.25;;;15.00;70.90;;;;;;4952890;29;20110;-78
2021/09/23 01:51:57;;;;;;;14.10;10.48;;;14.90;69.80;;;;;;4953498;29;20155;-78
2021/09/23 01:54:23;;;;;;;14.07;10.35;;;14.90;70.30;;;;;;4953260;29;20382;-78
2021/09/23 01:56:53;;;;;;;16.15;11.18;;;14.90;70.50;;;;;;4953360;29;20024;-79
2021/09/23 01:59:20;;;;;;;14.65;9.95;;;14.80;70.70;;;;;;4954058;29;20054;-78
2021/09/23 02:01:46;;;;;;;14.95;10.07;;;14.80;70.50;;;;;;4953077;29;20023;-77
2021/09/23 02:04:11;;;;;;;17.00;11.23;;;14.90;70.80;;;;;;4953692;28;20035;-78
2021/09/23 02:06:37;;;;;;;17.08;10.85;;;14.90;70.70;;;;;;4957238;29;20038;-80
2021/09/23 02:09:03;;;;;;;18.08;11.23;;;14.90;70.80;;;;;;4957126;29;20038;-79
2021/09/23 02:11:28;;;;;;;14.30;10.80;;;14.80;70.80;;;;;;4940402;29;20062;-79
2021/09/23 02:13:54;;;;;;;17.17;10.70;;;14.80;70.70;;;;;;4957505;29;20032;-79
2021/09/23 02:16:20;;;;;;;16.08;11.00;;;14.80;70.90;;;;;;4939517;29;20042;-79
2021/09/23 02:18:46;;;;;;;16.48;10.70;;;14.80;70.50;;;;;;4956965;29;20050;-80
2021/09/23 02:21:12;;;;;;;16.98;10.55;;;14.80;70.50;;;;;;4957107;29;20023;-80
2021/09/23 02:23:38;;;;;;;15.43;10.48;;;14.70;70.60;;;;;;4957058;29;20032;-79
2021/09/23 02:26:04;;;;;;;15.50;11.30;;;14.70;71.00;;;;;;4957336;29;20027;-78
2021/09/23 02:28:30;;;;;;;14.73;10.50;;;14.60;70.80;;;;;;4956735;29;20039;-79
2021/09/23 02:30:57;;;;;;;15.75;10.20;;;14.70;71.10;;;;;;4956452;29;20027;-79
2021/09/23 02:33:22;;;;;;;17.80;10.88;;;14.70;71.00;;;;;;4956790;29;20043;-79
2021/09/23 02:35:48;;;;;;;15.80;11.25;;;14.70;71.10;;;;;;4956786;29;20575;-80
2021/09/23 02:38:14;;;;;;;14.88;10.27;;;14.70;71.00;;;;;;4957029;29;20039;-78
2021/09/23 02:40:40;;;;;;;16.88;11.00;;;14.70;70.80;;;;;;4956606;29;20034;-80
2021/09/23 02:43:05;;;;;;;14.73;10.88;;;14.70;71.10;;;;;;4956590;29;20037;-80
2021/09/23 02:45:31;;;;;;;16.65;11.35;;;14.60;71.20;;;;;;4956510;29;20504;-80
2021/09/23 02:47:57;;;;;;;18.58;11.32;;;14.70;71.30;;;;;;4939829;29;20500;-77
2021/09/23 02:50:22;;;;;;;17.58;11.73;;;14.60;71.00;;;;;;4957295;29;20024;-81
2021/09/23 02:52:48;;;;;;;14.95;10.63;;;14.60;71.10;;;;;;4956633;29;20159;-80
2021/09/23 02:55:13;;;;;;;14.63;10.65;;;14.50;71.10;;;;;;4956451;29;20026;-79
2021/09/23 02:57:39;;;;;;;16.48;11.20;;;14.50;71.20;;;;;;4956300;29;20035;-78
2021/09/23 03:00:05;;;;;;;15.50;10.70;;;14.50;71.40;;;;;;4956243;29;20035;-79
2021/09/23 03:02:31;;;;;;;16.48;11.40;;;14.50;71.20;;;;;;4956754;29;20019;-79
2021/09/23 03:04:56;;;;;;;16.88;11.73;;;14.50;71.10;;;;;;4957210;29;20090;-80
2021/09/23 03:07:22;;;;;;;16.70;11.15;;;14.50;71.40;;;;;;4956511;29;20409;-80
2021/09/23 03:09:48;;;;;;;16.58;10.50;;;14.40;71.40;;;;;;4957130;29;20054;-78
2021/09/23 03:12:13;;;;;;;17.05;10.68;;;14.40;71.40;;;;;;4957156;29;20058;-81
2021/09/23 03:14:39;;;;;;;16.63;10.20;;;14.40;71.60;;;;;;4957002;28;20538;-80
2021/09/23 03:17:04;;;;;;;17.35;10.93;;;14.40;71.80;;;;;;4957260;29;20030;-80
2021/09/23 03:19:31;;;;;;;16.05;10.75;;;14.40;71.30;;;;;;4956306;29;20074;-79
2021/09/23 03:21:56;;;;;;;17.13;11.40;;;14.40;71.40;;;;;;4956304;29;20171;-81
2021/09/23 03:24:22;;;;;;;16.65;10.68;;;14.30;71.20;;;;;;4956127;29;20515;-80
2021/09/23 03:26:48;;;;;;;17.25;10.70;;;14.30;71.30;;;;;;4939125;29;20027;-79
2021/09/23 03:29:14;;;;;;;16.70;10.98;;;14.20;71.70;;;;;;4938882;29;20077;-80
2021/09/23 03:31:40;;;;;;;15.30;10.48;;;14.20;71.60;;;;;;4956020;29;20113;-80
2021/09/23 03:34:06;;;;;;;16.30;10.70;;;14.10;71.90;;;;;;4955670;29;20182;-79
2021/09/23 03:36:32;;;;;;;15.75;11.50;;;14.20;71.80;;;;;;4955726;29;20040;-80
2021/09/23 03:38:58;;;;;;;17.70;11.70;;;14.10;71.70;;;;;;4938351;29;20039;-79
2021/09/23 03:41:25;;;;;;;16.35;11.45;;;14.10;72.10;;;;;;4955913;29;20028;-77
2021/09/23 03:43:51;;;;;;;15.98;11.40;;;14.10;72.10;;;;;;4954992;29;20404;-80
2021/09/23 03:46:17;;;;;;;18.15;12.25;;;14.10;72.00;;;;;;4955420;29;20114;-80
2021/09/23 03:48:44;;;;;;;19.52;12.48;;;14.10;71.90;;;;;;4955438;29;20053;-79
2021/09/23 03:51:13;;;;;;;19.02;11.77;;;14.10;72.00;;;;;;4955422;29;20019;-80
2021/09/23 03:53:39;;;;;;;17.92;12.15;;;14.10;72.20;;;;;;4955266;29;20392;-80
2021/09/23 03:56:06;;;;;;;18.38;12.07;;;14.10;72.20;;;;;;4955751;29;20377;-79
2021/09/23 03:58:32;;;;;;;19.58;12.52;;;14.20;72.10;;;;;;4937724;29;20047;-79
2021/09/23 04:00:58;;;;;;;18.48;12.05;;;14.10;71.90;;;;;;4955165;29;20396;-79
2021/09/23 04:03:23;;;;;;;18.25;12.60;;;14.10;72.10;;;;;;4954336;29;20034;-79
2021/09/23 04:05:50;;;;;;;20.83;12.05;;;14.10;72.00;;;;;;4954590;29;20123;-79
2021/09/23 04:08:16;;;;;;;18.90;11.88;;;14.10;72.30;;;;;;4955085;29;20035;-80
2021/09/23 04:10:42;;;;;;;19.10;11.80;;;14.10;71.80;;;;;;4954940;29;20037;-79
2021/09/23 04:13:07;;;;;;;17.13;11.40;;;14.10;71.90;;;;;;4953662;29;20039;-79
2021/09/23 04:15:33;;;;;;;18.92;11.95;;;14.10;71.70;;;;;;4954352;29;20035;-79
2021/09/23 04:17:59;;;;;;;18.88;11.82;;;14.10;71.70;;;;;;4954357;29;20444;-79
2021/09/23 04:20:24;;;;;;;17.85;11.13;;;14.00;72.10;;;;;;4955049;29;20058;-79
2021/09/23 04:22:50;;;;;;;18.23;11.65;;;14.00;71.80;;;;;;4954388;29;20038;-77
2021/09/23 04:25:15;;;;;;;18.40;12.20;;;13.90;72.30;;;;;;4954150;29;20035;-78
2021/09/23 04:27:41;;;;;;;16.33;12.05;;;13.90;72.40;;;;;;4952950;28;20046;-81
2021/09/23 04:30:07;;;;;;;18.08;12.30;;;13.90;72.30;;;;;;4954513;29;20038;-80
2021/09/23 04:32:33;;;;;;;18.75;12.32;;;13.90;72.50;;;;;;4954311;29;20038;-79
2021/09/23 04:34:59;;;;;;;18.52;11.77;;;13.80;72.40;;;;;;4954657;29;20063;-80
2021/09/23 04:37:25;;;;;;;18.92;12.40;;;13.90;72.60;;;;;;4953879;29;20038;-79
2021/09/23 04:39:50;;;;;;;18.63;12.02;;;13.80;72.40;;;;;;4936626;29;20443;-80
2021/09/23 04:42:16;;;;;;;21.45;12.35;;;13.80;72.50;;;;;;4953505;29;20359;-80
2021/09/23 04:44:41;;;;;;;18.63;12.13;;;13.70;72.30;;;;;;4953779;29;20492;-78
2021/09/23 04:47:07;;;;;;;20.27;12.48;;;13.80;72.40;;;;;;4954155;29;20499;-80
2021/09/23 04:49:33;;;;;;;18.45;12.73;;;13.80;72.20;;;;;;4954039;29;20035;-79
2021/09/23 04:51:59;;;;;;;17.48;12.13;;;13.70;72.30;;;;;;4953756;29;20031;-80
2021/09/23 04:54:25;;;;;;;19.55;12.43;;;13.70;72.70;;;;;;4953776;29;20125;-80
2021/09/23 04:56:50;;;;;;;20.25;12.48;;;13.70;72.70;;;;;;4947051;29;20119;-80
2021/09/23 04:59:16;;;;;;;18.13;12.27;;;13.70;72.60;;;;;;4954180;29;20071;-80
2021/09/23 05:01:42;;;;;;;16.73;11.60;;;13.70;72.60;;;;;;4953296;29;20078;-80
2021/09/23 05:04:07;;;;;;;17.45;11.45;;;13.60;72.70;;;;;;4953831;29;20046;-81
2021/09/23 05:06:33;;;;;;;18.40;12.52;;;13.60;72.90;;;;;;4953522;29;20043;-80
2021/09/23 05:08:59;;;;;;;18.58;12.05;;;13.50;72.70;;;;;;4953529;29;20019;-79
2021/09/23 05:11:26;;;;;;;18.73;11.85;;;13.50;72.60;;;;;;4953446;29;20517;-77
2021/09/23 05:13:52;;;;;;;19.10;12.40;;;13.50;72.80;;;;;;4953243;29;20110;-81
2021/09/23 05:16:18;;;;;;;16.83;11.65;;;13.50;73.00;;;;;;4952915;29;20035;-78
2021/09/23 05:18:44;;;;;;;16.67;11.10;;;13.50;73.20;;;;;;4953024;29;20066;-79
2021/09/23 05:21:10;;;;;;;15.82;11.20;;;13.50;72.80;;;;;;4953153;29;20051;-80
2021/09/23 05:23:36;;;;;;;18.27;12.13;;;13.50;72.80;;;;;;4953722;29;20397;-77
2021/09/23 05:26:02;;;;;;;17.95;11.68;;;13.50;72.90;;;;;;4953658;29;20131;-80
2021/09/23 05:28:28;;;;;;;19.23;12.07;;;13.50;73.00;;;;;;4953032;29;20143;-79
2021/09/23 05:30:53;;;;;;;18.63;11.93;;;13.50;73.00;;;;;;4952783;29;20480;-80
2021/09/23 05:33:19;;;;;;;16.95;11.25;;;13.50;73.00;;;;;;4953376;29;20182;-76
2021/09/23 05:35:45;;;;;;;18.23;12.38;;;13.50;73.00;;;;;;4952790;29;20385;-76
2021/09/23 05:38:12;;;;;;;18.10;11.50;;;13.50;73.00;;;;;;4953323;28;20027;-76
2021/09/23 05:40:38;;;;;;;16.80;11.63;;;13.50;72.80;;;;;;4946465;29;20027;-79
2021/09/23 05:43:04;;;;;;;17.98;11.85;;;13.50;72.70;;;;;;4939058;29;20047;-80
2021/09/23 05:45:30;;;;;;;16.55;11.13;;;13.50;73.20;;;;;;4939664;29;20024;-79
2021/09/23 05:47:56;;;;;;;20.55;11.93;;;13.50;73.00;;;;;;4938148;29;20027;-78
2021/09/23 05:50:22;;;;;;;18.98;12.25;;;13.50;73.40;;;;;;4952918;29;20520;-77
2021/09/23 05:52:47;;;;;;;22.15;13.05;;;13.50;73.20;;;;;;4935520;29;20102;-78
2021/09/23 05:55:13;;;;;;;18.25;12.10;;;13.50;72.90;;;;;;4945442;29;20118;-77
2021/09/23 05:57:39;;;;;;;17.25;12.18;;;13.50;72.90;;;;;;4948596;29;20054;-77
2021/09/23 06:00:14;;;;;;;19.38;11.73;;;13.50;72.80;;;;;;4942407;29;20408;-77
2021/09/23 06:02:40;;;;;;;17.40;11.45;;;13.50;73.10;;;;;;4944835;29;20016;-77
2021/09/23 06:05:07;;;;;;;18.30;11.18;;;13.60;73.70;;;;;;4945689;29;20052;-77
2021/09/23 06:07:33;;;;;;;16.17;11.35;;;13.60;73.30;;;;;;4926200;29;20068;-78
2021/09/23 06:09:59;;;;;;;17.35;11.43;;;13.70;73.30;;;;;;4944540;29;20075;-78
2021/09/23 06:12:24;;;;;;;18.23;12.07;;;13.70;73.10;;;;;;4943651;29;20043;-79
2021/09/23 06:14:53;;;;;;;18.70;12.05;;;13.70;73.00;;;;;;4944011;29;20587;-79
2021/09/23 06:17:18;;;;;;;17.42;11.38;;;13.80;73.30;;;;;;4942273;29;20118;-79
2021/09/23 06:19:44;;;;;;;18.08;12.52;;;13.90;73.50;;;;;;4938222;29;20499;-80
2021/09/23 06:22:10;;;;;;;20.30;12.02;;;13.90;73.10;;;;;;4941676;29;20023;-79
2021/09/23 06:24:35;;;;;;;19.60;12.50;;;14.00;73.00;;;;;;4943151;29;20036;-79
2021/09/23 06:27:02;;;;;;;18.27;12.40;;;14.00;73.10;;;;;;4928870;29;20037;-79
2021/09/23 06:29:27;;;;;;;19.88;12.10;;;14.10;72.80;;;;;;4925680;29;20059;-78
2021/09/23 06:31:54;;;;;;;19.25;12.88;;;14.20;72.90;;;;;;4946255;29;20074;-78
2021/09/23 06:34:19;;;;;;;16.08;11.68;;;14.30;72.90;;;;;;4941449;29;20110;-78
2021/09/23 06:36:45;;;;;;;17.40;11.52;;;14.40;72.60;;;;;;4945493;29;20023;-76
2021/09/23 06:39:11;;;;;;;18.27;12.02;;;14.40;72.80;;;;;;4936259;29;20512;-77
2021/09/23 06:41:37;;;;;;;18.30;11.68;;;14.50;72.30;;;;;;4945191;29;20031;-75
2021/09/23 06:44:05;;;;;;;19.65;11.10;;;14.60;72.60;;;;;;4942471;29;20154;-78
2021/09/23 06:46:31;;;;;;;18.55;11.68;;;14.70;73.30;;;;;;4944792;29;20055;-79
2021/09/23 06:48:57;;;;;;;19.90;12.68;;;14.80;72.10;;;;;;4944573;29;20031;-77
2021/09/23 06:51:22;;;;;;;18.48;12.13;;;15.00;71.90;;;;;;4947452;29;20395;-78
2021/09/23 06:53:48;;;;;;;17.33;11.82;;;15.10;71.80;;;;;;4946692;29;20086;-77
2021/09/23 06:56:15;;;;;;;20.83;13.10;;;15.20;71.70;;;;;;4943340;29;20027;-77
2021/09/23 06:58:41;;;;;;;18.48;12.30;;;15.40;71.50;;;;;;4954495;29;20043;-79
2021/09/23 07:01:07;;;;;;;18.05;12.27;;;15.60;71.30;;;;;;4955886;29;20488;-79
2021/09/23 07:03:34;;;;;;;19.10;12.23;;;15.80;71.30;;;;;;4955710;29;20086;-77
2021/09/23 07:05:59;;;;;;;18.65;12.63;;;15.90;70.80;;;;;;4955491;29;20507;-79
2021/09/23 07:08:25;;;;;;;17.50;12.13;;;16.10;70.70;;;;;;4950641;29;20031;-74
2021/09/23 07:10:51;;;;;;;19.77;13.30;;;16.20;70.20;;;;;;4955312;29;20089;-82
2021/09/23 07:13:17;;;;;;;18.35;12.30;;;16.30;70.30;;;;;;4948185;29;20448;-77
2021/09/23 07:15:42;;;;;;;17.75;12.75;;;16.40;70.10;;;;;;4954285;29;20032;-76
2021/09/23 07:18:08;;;;;;;21.38;12.13;;;16.60;69.80;;;;;;4954817;29;20023;-76
2021/09/23 07:20:34;;;;;;;16.33;11.32;;;16.70;69.50;;;;;;4945511;29;20043;-77
2021/09/23 07:23:00;;;;;;;17.67;11.63;;;16.90;69.20;;;;;;4938170;29;20180;-79
2021/09/23 07:25:25;;;;;;;18.58;12.82;;;17.00;68.80;;;;;;4896151;29;20644;-79
2021/09/23 07:27:52;;;;;;;15.13;10.98;;;17.10;68.50;;;;;;4917626;29;20055;-76
2021/09/23 07:30:18;;;;;;;17.48;11.32;;;17.30;68.50;;;;;;4943315;29;20102;-77
2021/09/23 07:32:44;;;;;;;17.20;12.00;;;17.50;68.20;;;;;;4914384;29;20036;-74
2021/09/23 07:35:10;;;;;;;17.38;12.15;;;17.70;67.70;;;;;;4894952;29;20043;-75
2021/09/23 07:37:36;;;;;;;16.85;11.75;;;17.80;67.20;;;;;;4929579;29;20042;-78
2021/09/23 07:40:07;;;;;;;19.48;11.57;;;17.90;67.30;;;;;;4931601;29;20045;-76
2021/09/23 07:42:33;;;;;;;17.98;11.80;;;18.10;66.90;;;;;;4928013;29;20122;-77
2021/09/23 07:45:00;;;;;;;16.60;11.25;;;18.30;66.70;;;;;;4916769;29;20059;-77
2021/09/23 07:47:25;;;;;;;15.25;11.15;;;18.40;66.30;;;;;;4924155;29;20027;-76
2021/09/23 07:49:51;;;;;;;16.58;10.77;;;18.60;66.60;;;;;;4910977;29;20038;-78
2021/09/23 07:52:17;;;;;;;16.10;10.88;;;19.00;65.90;;;;;;4901710;29;20035;-77
2021/09/23 07:54:43;;;;;;;17.60;11.15;;;19.10;65.60;;;;;;4915667;29;20039;-78
2021/09/23 07:57:08;;;;;;;16.15;11.77;;;19.40;65.70;;;;;;4894184;29;20051;-78
2021/09/23 07:59:34;;;;;;;15.00;11.30;;;19.60;65.10;;;;;;4938904;29;20039;-78
2021/09/23 08:02:00;;;;;;;16.88;11.02;;;19.70;64.60;;;;;;4955504;28;20052;-78
2021/09/23 08:04:26;;;;;;;13.85;10.85;;;19.90;64.50;;;;;;4953839;29;20511;-78
2021/09/23 08:06:51;;;;;;;15.10;10.52;;;20.00;63.60;;;;;;4954524;29;20101;-78
2021/09/23 08:09:17;;;;;;;15.25;10.85;;;20.10;64.10;;;;;;4915913;29;21802;-78
2021/09/23 08:11:43;;;;;;;15.70;11.10;;;20.30;64.40;;;;;;4909788;29;20035;-78
2021/09/23 08:14:08;;;;;;;14.35;10.43;;;20.50;63.20;;;;;;4940832;29;20061;-78
2021/09/23 08:16:34;;;;;;;14.13;10.15;;;20.70;63.00;;;;;;4952597;29;20491;-78
2021/09/23 08:18:59;;;;;;;14.38;10.43;;;20.80;62.30;;;;;;4954074;29;20035;-77
2021/09/23 08:21:27;;;;;;;14.32;10.55;;;21.00;61.90;;;;;;4952301;29;20037;-76
2021/09/23 08:23:53;;;;;;;15.20;10.30;;;21.10;62.10;;;;;;4939791;29;20514;-77
2021/09/23 08:26:20;;;;;;;13.50;9.73;;;21.30;61.60;;;;;;4955276;29;20061;-78
2021/09/23 08:28:45;;;;;;;14.68;10.30;;;21.60;61.10;;;;;;4954645;29;20488;-78
2021/09/23 08:31:15;;;;;;;14.80;10.52;;;21.80;60.70;;;;;;4954374;29;20027;-79
2021/09/23 08:33:41;;;;;;;14.13;10.23;;;21.90;60.10;;;;;;4953798;29;20047;-80
2021/09/23 08:36:07;;;;;;;13.63;10.20;;;22.00;59.20;;;;;;4936753;29;20377;-79
2021/09/23 08:38:32;;;;;;;14.43;10.88;;;22.20;59.60;;;;;;4954345;29;20035;-80
2021/09/23 08:40:58;;;;;;;16.30;10.52;;;22.40;59.60;;;;;;4954878;29;20102;-79
2021/09/23 08:43:24;;;;;;;14.18;9.63;;;22.50;58.60;;;;;;4954435;29;20031;-79
2021/09/23 08:45:53;;;;;;;13.85;9.77;;;22.60;58.20;;;;;;4954385;29;20062;-79
2021/09/23 08:48:20;;;;;;;15.90;11.57;;;22.80;59.00;;;;;;4954161;29;20015;-79
2021/09/23 08:50:45;;;;;;;15.43;11.88;;;23.10;58.00;;;;;;4953014;29;20031;-79
2021/09/23 08:53:11;;;;;;;18.02;11.70;;;23.30;58.00;;;;;;4954426;29;20058;-80
2021/09/23 08:55:37;;;;;;;14.02;10.00;;;23.50;57.90;;;;;;4953660;29;20039;-79
2021/09/23 08:58:06;;;;;;;15.52;10.82;;;23.60;56.50;;;;;;4953649;29;20023;-78
2021/09/23 09:00:36;;;;;;;13.52;9.60;;;23.90;56.50;;;;;;4954304;29;20058;-80
2021/09/23 09:03:05;;;;;;;14.43;9.90;;;24.10;56.00;;;;;;4953940;29;20484;-80
2021/09/23 09:05:31;;;;;;;13.55;10.50;;;24.40;55.70;;;;;;4954071;29;20485;-80
2021/09/23 09:08:05;;;;;;;12.93;10.02;;;24.60;55.00;;;;;;4954323;29;20023;-81
2021/09/23 09:10:32;;;;;;;13.35;9.25;;;24.70;54.50;;;;;;4954312;29;20031;-80
2021/09/23 09:13:05;;;;;;;14.88;10.32;;;24.90;55.00;;;;;;4953633;28;20023;-80
2021/09/23 09:15:31;;;;;;;11.35;8.77;;;25.00;54.80;;;;;;4954157;29;20027;-80
2021/09/23 09:17:57;;;;;;;10.20;8.73;;;25.20;54.00;;;;;;4953196;29;20027;-80
2021/09/23 09:20:22;;;;;;;12.43;9.30;;;25.30;53.80;;;;;;4954176;29;20039;-81
2021/09/23 09:22:48;;;;;;;10.05;8.07;;;25.60;54.00;;;;;;4954146;29;20031;-79
2021/09/23 09:25:13;;;;;;;11.80;9.13;;;25.80;52.30;;;;;;4953602;29;20038;-81
2021/09/23 09:27:48;;;;;;;11.05;8.60;;;25.70;50.80;;;;;;4954049;29;20028;-81
2021/09/23 09:30:14;;;;;;;13.93;8.43;;;25.30;51.30;;;;;;4942778;29;20027;-81
2021/09/23 09:32:52;;;;;;;9.90;8.55;;;25.60;52.90;;;;;;4952723;29;20098;-82
2021/09/23 09:35:23;;;;;;;11.65;8.20;;;26.00;52.20;;;;;;4935916;29;20556;-82
2021/09/23 09:37:55;;;;;;;12.40;8.10;;;26.10;51.00;;;;;;4953019;29;20413;-82
2021/09/23 09:40:24;;;;;;;10.18;8.57;;;25.60;50.30;;;;;;4952904;29;20058;-82
2021/09/23 09:42:53;;;;;;;9.57;7.57;;;25.90;52.60;;;;;;4953034;29;20038;-81
2021/09/23 09:45:26;;;;;;;10.45;7.10;;;26.50;53.00;;;;;;4952534;29;20023;-82
2021/09/23 09:47:53;;;;;;;9.13;7.20;;;26.90;50.70;;;;;;4938117;29;20020;-81
2021/09/23 09:50:27;;;;;;;10.48;7.28;;;26.90;49.80;;;;;;4938439;29;20035;-81
2021/09/23 09:52:58;;;;;;;8.07;6.47;;;27.00;49.70;;;;;;4953623;29;20027;-81
2021/09/23 09:55:47;;;;;;;7.57;6.20;;;27.20;49.00;;;;;;4945737;29;20024;-80
2021/09/23 09:58:20;;;;;;;8.43;6.88;;;27.40;49.00;;;;;;4948303;29;20440;-82
2021/09/23 10:00:46;;;;;;;7.47;6.03;;;27.60;46.80;;;;;;4945672;29;20028;-80
2021/09/23 10:03:12;;;;;;;8.43;6.50;;;28.20;48.50;;;;;;4941112;29;20030;-82
2021/09/23 10:05:38;;;;;;;9.93;6.60;;;28.40;44.70;;;;;;4940284;29;20452;-82
2021/09/23 10:08:05;;;;;;;9.18;6.50;;;28.80;46.20;;;;;;4964431;29;20072;-82
2021/09/23 10:10:32;;;;;;;9.75;7.15;;;29.20;43.90;;;;;;4951776;29;20047;-81
2021/09/23 10:13:00;;;;;;;8.40;6.47;;;29.40;42.80;;;;;;4953131;29;20047;-83
2021/09/23 10:15:26;;;;;;;7.82;5.22;;;29.30;41.60;;;;;;4943435;29;20016;-84
2021/09/23 10:17:55;;;;;;;6.38;5.10;;;29.30;42.70;;;;;;4938016;29;20062;-82
2021/09/23 10:20:24;;;;;;;6.78;5.53;;;28.70;42.40;;;;;;4949215;29;20035;-80
2021/09/23 10:22:50;;;;;;;8.10;6.00;;;27.90;43.00;;;;;;4935918;29;20034;-78
2021/09/23 10:25:20;;;;;;;7.10;5.65;;;27.10;43.60;;;;;;4953152;28;20440;-79
2021/09/23 10:28:00;;;;;;;8.32;5.50;;;27.10;47.20;;;;;;4951270;29;20030;-78
2021/09/23 10:30:27;;;;;;;8.57;5.65;;;27.10;45.40;;;;;;4950657;29;20062;-78
2021/09/23 10:32:54;;;;;;;7.22;5.18;;;26.90;45.60;;;;;;4940947;29;20035;-79
2021/09/23 10:35:22;;;;;;;8.38;5.63;;;26.50;45.10;;;;;;4944622;29;20456;-79
2021/09/23 10:37:58;;;;;;;7.95;5.55;;;26.00;45.50;;;;;;4951046;29;20459;-79
2021/09/23 10:40:26;;;;;;;6.93;5.15;;;25.70;46.40;;;;;;4950910;29;20102;-79
2021/09/23 10:42:55;;;;;;;6.90;5.43;;;25.70;47.50;;;;;;4945922;29;20452;-79
2021/09/23 10:45:27;;;;;;;6.68;5.00;;;25.80;47.00;;;;;;4951730;29;20536;-80
2021/09/23 10:48:00;;;;;;;7.22;5.07;;;25.90;46.90;;;;;;4940480;29;20034;-80
2021/09/23 10:50:29;;;;;;;6.63;4.97;;;26.20;46.90;;;;;;4948297;29;20476;-80
2021/09/23 10:52:57;;;;;;;6.38;4.57;;;26.70;47.20;;;;;;4947543;29;20030;-80
2021/09/23 10:55:27;;;;;;;7.00;5.18;;;27.30;47.40;;;;;;4950119;29;20171;-84
2021/09/23 10:57:53;;;;;;;5.45;4.78;;;27.60;44.70;;;;;;4955667;29;20023;-83
2021/09/23 11:00:26;;;;;;;7.55;5.00;;;27.70;44.40;;;;;;4954405;29;20567;-84
2021/09/23 11:02:54;;;;;;;4.63;4.07;;;28.20;43.70;;;;;;4941342;29;20035;-88
2021/09/23 11:05:21;;;;;;;5.57;4.15;;;28.40;42.70;;;;;;4956841;29;20106;-81
2021/09/23 11:07:48;;;;;;;5.47;4.25;;;28.80;42.50;;;;;;4953142;29;20032;-82
2021/09/23 11:10:15;;;;;;;5.13;4.07;;;28.50;41.10;;;;;;4956492;29;20547;-81
2021/09/23 11:12:43;;;;;;;4.53;3.97;;;28.00;41.10;;;;;;4954517;29;20476;-85
2021/09/23 11:15:12;;;;;;;4.65;3.78;;;28.30;42.80;;;;;;4945163;29;20034;-84
2021/09/23 11:17:39;;;;;;;5.10;4.00;;;28.80;41.70;;;;;;4951699;29;20401;-83
2021/09/23 11:20:11;;;;;;;4.00;3.60;;;29.30;41.60;;;;;;4937867;29;20050;-79
2021/09/23 11:22:38;;;;;;;;;;;29.70;39.90;;;;;;4950211;29;20024;-84
2021/09/23 11:25:08;;;;;;;4.07;3.67;;;29.30;38.80;;;;;;4947578;29;19910;-81
2021/09/23 11:27:36;;;;;;;3.72;3.33;;;28.50;39.70;;;;;;4947128;29;20084;-80
2021/09/23 11:30:03;;;;;;;6.07;3.45;;;27.80;40.90;;;;;;4946168;29;20027;-79
2021/09/23 11:32:28;;;;;;;3.53;3.03;;;27.10;41.20;;;;;;4946349;29;20079;-79
2021/09/23 11:35:03;;;;;;;4.18;3.28;;;27.50;43.60;;;;;;4932989;29;20464;-80
2021/09/23 11:37:33;;;;;;;3.97;3.33;;;28.50;41.60;;;;;;4949154;28;20038;-83
2021/09/23 11:40:01;;;;;;;3.72;2.47;;;29.20;39.00;;;;;;4944993;29;20517;-84
2021/09/23 11:42:32;;;;;;;3.00;2.15;;;29.60;38.20;;;;;;4927401;29;20037;-80
2021/09/23 11:45:05;;;;;;;2.87;2.07;;;30.20;37.60;;;;;;4938419;29;20031;-78
2021/09/23 11:47:31;;;;;;;2.58;2.38;;;30.90;38.00;;;;;;4942688;29;20271;-80
2021/09/23 11:49:57;;;;;;;2.80;2.30;;;31.40;35.00;;;;;;4948645;29;20038;-80
2021/09/23 11:52:35;;;;;;;2.25;1.88;;;31.50;33.80;;;;;;4947257;29;20119;-80
2021/09/23 11:55:01;;;;;;;2.70;1.95;;;32.60;35.70;;;;;;4947735;29;20039;-80
2021/09/23 11:57:29;;;;;;;3.17;2.33;;;34.30;32.50;;;;;;4946184;29;20477;-80
2021/09/23 11:59:57;;;;;;;1.85;1.73;;;35.20;29.70;;;;;;4945157;29;20039;-81
2021/09/23 12:02:23;;;;;;;1.90;1.45;;;36.50;28.40;;;;;;4948137;29;20075;-80
2021/09/23 12:04:56;;;;;;;2.17;1.50;;;37.70;28.90;;;;;;4944501;29;20034;-79
2021/09/23 12:07:22;;;;;;;1.95;1.83;;;38.80;27.10;;;;;;4934124;29;20039;-81
2021/09/23 12:10:14;;;;;;;2.20;1.58;;;39.90;24.30;;;;;;4953405;28;20029;-81
2021/09/23 12:12:39;;;;;;;1.70;1.60;;;40.40;24.20;;;;;;4953152;29;20074;-80
2021/09/23 12:15:07;;;;;;;2.05;1.70;;;41.30;25.20;;;;;;4953617;28;20097;-80
2021/09/23 12:17:32;;;;;;;3.20;1.77;;;41.60;22.30;;;;;;4954504;28;20404;-79
2021/09/23 12:20:00;;;;;;;2.03;1.67;;;41.90;21.60;;;;;;4951216;28;20046;-79
2021/09/23 12:22:32;;;;;;;1.55;1.40;;;42.00;21.40;;;;;;4953239;28;20024;-79
2021/09/23 12:24:58;;;;;;;1.90;1.60;;;42.20;21.50;;;;;;4955382;28;20453;-79
2021/09/23 12:27:26;;;;;;;2.70;1.70;;;42.60;20.90;;;;;;4954494;29;20023;-79
2021/09/23 12:29:56;;;;;;;2.47;1.80;;;42.80;19.90;;;;;;4939463;29;20500;-79
2021/09/23 12:32:37;;;;;;;2.00;1.80;;;43.00;19.60;;;;;;4951329;29;20031;-79